createdAt,value
2023-03-06T00:00:15.575Z,0.71
2023-03-06T00:01:15.548Z,0.71
2023-03-06T00:02:15.546Z,0.71
2023-03-06T00:03:15.527Z,0.69
2023-03-06T06:54:57.893Z,0.59
2023-03-06T07:11:57.361Z,0.58
2023-03-06T08:06:09.239Z,0.50
2023-03-06T08:39:53.513Z,0.56
2023-03-06T08:41:53.289Z,0.59
2023-03-06T08:42:53.282Z,0.60
2023-03-06T08:44:53.262Z,0.59
2023-03-06T08:45:53.368Z,0.59
2023-03-06T08:48:53.267Z,0.53
2023-03-06T08:51:53.202Z,0.51
2023-03-06T08:53:56.435Z,0.54
2023-03-06T08:54:53.182Z,0.53
2023-03-06T08:55:53.177Z,0.47
2023-03-06T08:56:53.160Z,0.49
2023-03-06T08:57:53.182Z,0.46
2023-03-06T08:58:53.188Z,0.49
2023-03-06T08:59:53.133Z,0.51
2023-03-06T09:00:53.270Z,0.52
2023-03-06T09:01:53.146Z,0.51
2023-03-06T09:02:53.114Z,0.51
2023-03-06T09:03:53.190Z,0.52
2023-03-06T09:05:53.078Z,0.52
2023-03-06T09:06:54.604Z,0.54
2023-03-06T09:07:53.054Z,0.54
2023-03-06T09:08:53.192Z,0.55
2023-03-06T09:09:53.150Z,0.55
2023-03-06T09:10:53.229Z,0.57
2023-03-06T09:11:53.022Z,0.60
2023-03-06T09:12:54.814Z,0.59
2023-03-06T09:13:53.001Z,0.59
2023-03-06T09:14:53.009Z,0.59
2023-03-06T09:15:52.986Z,0.61
2023-03-06T09:16:53.099Z,0.63
2023-03-06T09:17:53.061Z,0.63
2023-03-06T09:19:52.949Z,0.64
2023-03-06T09:20:52.937Z,0.67
2023-03-06T09:21:52.947Z,0.66
2023-03-06T09:22:52.929Z,0.66
2023-03-06T09:23:53.213Z,0.66
2023-03-06T09:24:52.914Z,0.69
2023-03-06T09:25:53.226Z,0.71
2023-03-06T09:26:52.888Z,0.72
2023-03-06T09:28:08.692Z,0.72
2023-03-06T09:28:52.884Z,0.72
2023-03-06T09:29:53.206Z,0.73
2023-03-06T09:30:52.889Z,0.75
2023-03-06T09:31:52.856Z,0.77
2023-03-06T09:32:53.206Z,0.80
2023-03-06T09:33:52.829Z,0.80
2023-03-06T09:34:52.829Z,0.80
2023-03-06T09:35:52.843Z,0.79
2023-03-06T09:36:57.344Z,0.78
2023-03-06T09:37:52.802Z,0.79
2023-03-06T09:38:52.800Z,0.79
2023-03-06T09:39:53.235Z,0.80
2023-03-06T09:40:52.767Z,0.79
2023-03-06T12:24:51.306Z,0.52
2023-03-06T23:09:45.569Z,1.61
2023-03-06T23:10:45.606Z,1.59
2023-03-06T23:11:45.556Z,1.61
2023-03-06T23:12:45.573Z,1.60
2023-03-06T23:13:45.537Z,1.63
2023-03-06T23:14:45.583Z,1.62
2023-03-06T23:15:45.578Z,1.61
2023-03-06T23:16:45.511Z,1.63
2023-03-06T23:17:45.523Z,1.60
2023-03-06T23:18:45.524Z,1.60
2023-03-06T23:19:45.481Z,1.60
2023-03-06T23:20:45.473Z,1.64
2023-03-06T23:21:45.467Z,1.59
2023-03-06T23:22:45.459Z,1.60
2023-03-06T23:23:45.455Z,1.61
2023-03-06T23:24:45.441Z,1.59
2023-03-06T23:25:45.430Z,1.56
2023-03-06T23:26:45.427Z,1.58
2023-03-06T23:27:45.413Z,1.59
2023-03-06T23:28:45.406Z,1.58
2023-03-06T23:29:45.405Z,1.59
2023-03-06T23:30:45.447Z,1.55
2023-03-06T23:31:45.376Z,1.58
2023-03-06T23:32:46.090Z,1.57
2023-03-06T23:33:45.404Z,1.60
2023-03-06T23:34:45.357Z,1.57
2023-03-06T23:35:45.387Z,1.58
2023-03-06T23:36:45.334Z,1.57
2023-03-06T23:37:45.333Z,1.55
2023-03-06T23:38:45.316Z,1.55
2023-03-06T23:39:45.309Z,1.56
2023-03-06T23:40:45.297Z,1.57
2023-03-06T23:41:45.291Z,1.56
2023-03-06T23:42:45.278Z,1.57
2023-03-06T23:43:45.290Z,1.54
2023-03-06T23:44:45.279Z,1.58
2023-03-06T23:45:45.262Z,1.58
2023-03-06T23:46:45.238Z,1.58
2023-03-06T23:47:45.240Z,1.59
2023-03-06T23:48:45.256Z,1.57
2023-03-06T23:49:45.241Z,1.55
2023-03-06T23:50:45.215Z,1.56
2023-03-06T23:51:45.247Z,1.55
2023-03-06T23:52:45.202Z,1.55
2023-03-06T23:53:45.182Z,1.57
2023-03-06T23:54:45.182Z,1.56
2023-03-06T23:55:45.325Z,1.57
2023-03-06T23:56:45.169Z,1.56
2023-03-06T23:57:45.153Z,1.56
2023-03-06T23:58:45.151Z,1.56
